Time;durP1;ratioP1;P1;durP2;ratioP2;P2;SDS_P1;SDS_P2;PMS_P1;PMS_P2;Temp;Humidity;BMP_temperature;BMP_pressure;BME280_temperature;BME280_humidity;BME280_pressure;Samples;Min_cycle;Max_cycle;Signal;HPM_P1;HPM_P2
2021/01/26 00:00:12;;;;;;;9.67;8.10;;;1.20;99.90;;;;;;5010247;28;20417;-73
2021/01/26 00:02:38;;;;;;;9.53;7.50;;;1.20;99.90;;;;;;5010534;28;20452;-74
2021/01/26 00:05:05;;;;;;;12.03;8.60;;;1.20;99.90;;;;;;5009805;28;20429;-74
2021/01/26 00:07:30;;;;;;;10.80;9.00;;;1.20;99.90;;;;;;5009556;28;20469;-74
2021/01/26 00:09:56;;;;;;;9.90;7.70;;;1.10;99.90;;;;;;5010066;28;20517;-74
2021/01/26 00:12:21;;;;;;;9.73;8.30;;;1.10;99.90;;;;;;5010328;28;20265;-73
2021/01/26 00:14:47;;;;;;;8.37;6.80;;;1.00;99.90;;;;;;5010095;28;20555;-73
2021/01/26 00:17:12;;;;;;;11.03;8.50;;;1.00;99.90;;;;;;5009513;28;21517;-74
2021/01/26 00:19:38;;;;;;;10.03;7.77;;;0.90;99.90;;;;;;5010149;28;20183;-73
2021/01/26 00:22:03;;;;;;;9.80;7.97;;;0.90;99.90;;;;;;5010160;28;20245;-74
2021/01/26 00:24:29;;;;;;;13.23;8.43;;;0.90;99.90;;;;;;5009882;28;20183;-74
2021/01/26 00:26:54;;;;;;;10.10;7.80;;;0.90;99.90;;;;;;5013130;28;20559;-74
2021/01/26 00:29:20;;;;;;;9.00;7.80;;;0.80;99.90;;;;;;5013076;28;20639;-74
2021/01/26 00:31:46;;;;;;;10.33;8.70;;;0.80;99.90;;;;;;5013381;28;20467;-74
2021/01/26 00:34:11;;;;;;;9.70;8.70;;;0.80;99.90;;;;;;5013190;28;20659;-74
2021/01/26 00:36:37;;;;;;;8.53;7.60;;;0.80;99.90;;;;;;5012880;28;20203;-73
2021/01/26 00:39:03;;;;;;;10.80;8.90;;;0.80;99.90;;;;;;5013174;28;20179;-74
2021/01/26 00:41:29;;;;;;;10.33;9.07;;;0.80;99.90;;;;;;5013299;28;20185;-73
2021/01/26 00:43:54;;;;;;;10.70;8.00;;;0.80;99.90;;;;;;5013458;28;20433;-74
2021/01/26 00:46:20;;;;;;;9.10;8.10;;;0.80;99.90;;;;;;5012619;28;20171;-74
2021/01/26 00:48:45;;;;;;;12.53;9.13;;;0.70;99.90;;;;;;5013512;28;20191;-74
2021/01/26 00:51:11;;;;;;;9.57;8.50;;;0.70;99.90;;;;;;5013293;28;20557;-73
2021/01/26 00:53:37;;;;;;;9.67;8.20;;;0.70;99.90;;;;;;5012972;28;20218;-74
2021/01/26 00:56:03;;;;;;;9.70;8.30;;;0.70;99.90;;;;;;5012557;28;20643;-74
2021/01/26 00:58:29;;;;;;;10.17;8.70;;;0.60;99.90;;;;;;5012744;28;20515;-73
2021/01/26 01:00:54;;;;;;;10.00;9.00;;;0.60;99.90;;;;;;5013090;28;20437;-74
2021/01/26 01:03:20;;;;;;;14.03;8.67;;;0.60;99.90;;;;;;5012813;28;20550;-74
2021/01/26 01:05:45;;;;;;;10.40;9.00;;;0.60;99.90;;;;;;5012248;28;20191;-74
2021/01/26 01:08:11;;;;;;;11.93;9.40;;;0.60;99.90;;;;;;5012461;28;20218;-74
2021/01/26 01:10:38;;;;;;;16.10;9.27;;;0.50;99.90;;;;;;5012881;28;20554;-74
2021/01/26 01:13:05;;;;;;;9.37;7.87;;;0.50;99.90;;;;;;5012851;28;20669;-74
2021/01/26 01:15:31;;;;;;;11.00;8.50;;;0.60;99.90;;;;;;5012208;28;20434;-74
2021/01/26 01:17:57;;;;;;;9.70;8.27;;;0.60;99.90;;;;;;5011711;28;20449;-74
2021/01/26 01:20:26;;;;;;;9.00;7.73;;;0.50;99.90;;;;;;5011845;28;20663;-74
2021/01/26 01:22:52;;;;;;;8.93;8.03;;;0.50;99.90;;;;;;5012312;28;20635;-74
2021/01/26 01:25:17;;;;;;;11.43;8.90;;;0.50;99.90;;;;;;5011629;28;20520;-73
2021/01/26 01:27:44;;;;;;;9.50;8.00;;;0.40;99.90;;;;;;5011912;28;20523;-73
2021/01/26 01:30:12;;;;;;;11.13;8.70;;;0.40;99.90;;;;;;5011870;28;20992;-74
2021/01/26 01:32:38;;;;;;;10.70;9.03;;;0.30;99.90;;;;;;5012071;28;20438;-73
2021/01/26 01:35:05;;;;;;;9.70;6.97;;;0.30;99.90;;;;;;5011641;28;20426;-73
2021/01/26 01:37:30;;;;;;;10.40;8.10;;;0.30;99.90;;;;;;5010917;28;20441;-74
2021/01/26 01:39:56;;;;;;;9.50;7.50;;;0.30;99.90;;;;;;5011831;28;20488;-74
2021/01/26 01:42:21;;;;;;;9.30;8.30;;;0.20;99.90;;;;;;5012366;28;20225;-74
2021/01/26 01:44:47;;;;;;;9.73;7.20;;;0.30;99.90;;;;;;5011705;28;20557;-73
2021/01/26 01:47:24;;;;;;;9.80;7.77;;;0.30;99.90;;;;;;5011708;28;20732;-74
2021/01/26 01:49:49;;;;;;;9.93;7.03;;;0.30;99.90;;;;;;5011534;28;20192;-74
2021/01/26 01:52:24;;;;;;;8.60;7.57;;;0.30;99.90;;;;;;5012037;28;20516;-74
2021/01/26 01:55:03;;;;;;;11.63;8.20;;;0.30;99.90;;;;;;5011437;28;20194;-74
2021/01/26 01:57:36;;;;;;;11.00;8.47;;;0.40;99.90;;;;;;5011307;28;20445;-74
2021/01/26 02:00:08;;;;;;;11.90;7.23;;;0.40;99.90;;;;;;5011222;28;20780;-74
2021/01/26 02:02:37;;;;;;;11.23;8.00;;;0.30;99.90;;;;;;5011574;28;20432;-73
2021/01/26 02:05:04;;;;;;;10.70;8.57;;;0.40;99.90;;;;;;5011472;28;20789;-74
2021/01/26 02:07:32;;;;;;;9.67;7.83;;;0.40;99.90;;;;;;4989950;28;20578;-74
2021/01/26 02:09:57;;;;;;;10.10;6.77;;;0.40;99.90;;;;;;5010637;28;20430;-74
2021/01/26 02:12:23;;;;;;;8.73;6.73;;;0.50;99.90;;;;;;5011465;28;20430;-74
2021/01/26 02:14:53;;;;;;;12.57;8.00;;;0.40;99.90;;;;;;4992667;28;20195;-74
2021/01/26 02:17:46;;;;;;;12.23;8.20;;;0.40;99.90;;;;;;5010073;28;20200;-74
2021/01/26 02:20:20;;;;;;;8.43;7.33;;;0.40;99.90;;;;;;4993516;28;20430;-73
2021/01/26 02:23:14;;;;;;;8.50;6.80;;;0.40;99.90;;;;;;5011852;28;20786;-74
2021/01/26 02:25:55;;;;;;;10.07;6.77;;;0.30;99.90;;;;;;5011107;28;20433;-74
2021/01/26 02:28:45;;;;;;;11.00;7.33;;;0.30;99.90;;;;;;5003128;28;20449;-73
2021/01/26 02:31:29;;;;;;;14.70;7.50;;;0.30;99.90;;;;;;5010786;28;20929;-73
2021/01/26 02:34:25;;;;;;;9.10;7.07;;;0.30;99.90;;;;;;5010495;28;20489;-73
2021/01/26 02:37:28;;;;;;;9.90;8.27;;;0.30;99.90;;;;;;5010297;28;20911;-72
2021/01/26 02:40:06;;;;;;;10.67;7.03;;;0.30;99.90;;;;;;4993049;28;20417;-74
2021/01/26 02:42:51;;;;;;;11.00;8.13;;;0.30;99.90;;;;;;5010595;28;20425;-74
2021/01/26 02:45:35;;;;;;;12.83;9.10;;;0.30;99.90;;;;;;5010406;28;20505;-74
2021/01/26 02:48:20;;;;;;;13.27;9.50;;;0.30;99.90;;;;;;5010389;28;20453;-74
2021/01/26 02:51:07;;;;;;;12.13;9.27;;;0.30;99.90;;;;;;5010344;28;20424;-74
2021/01/26 02:53:54;;;;;;;11.93;7.90;;;0.30;99.90;;;;;;5010209;28;20468;-73
2021/01/26 02:56:38;;;;;;;10.37;8.63;;;0.30;99.90;;;;;;5010445;28;20452;-72
2021/01/26 02:59:25;;;;;;;12.93;10.00;;;0.30;99.90;;;;;;5006447;28;20437;-73
2021/01/26 03:01:58;;;;;;;11.23;7.83;;;0.30;99.90;;;;;;4986885;28;20843;-74
2021/01/26 03:04:31;;;;;;;13.30;8.23;;;0.30;99.90;;;;;;4989416;28;20439;-74
2021/01/26 03:07:00;;;;;;;10.60;8.87;;;0.30;99.90;;;;;;5008261;28;20465;-74
2021/01/26 03:09:30;;;;;;;8.97;7.80;;;0.40;99.90;;;;;;5010270;28;20429;-74
2021/01/26 03:12:07;;;;;;;16.40;8.07;;;0.30;99.90;;;;;;4992933;28;20430;-73
2021/01/26 03:14:52;;;;;;;16.50;8.20;;;0.30;99.90;;;;;;4989487;28;20450;-73
2021/01/26 03:17:44;;;;;;;13.80;8.67;;;0.30;99.90;;;;;;5006332;28;20457;-73
2021/01/26 03:20:22;;;;;;;13.50;9.90;;;0.30;99.90;;;;;;5006541;28;20438;-74
2021/01/26 03:22:52;;;;;;;11.17;8.10;;;0.20;99.90;;;;;;5004665;28;20428;-73
2021/01/26 03:25:22;;;;;;;10.70;7.60;;;0.20;99.90;;;;;;5010005;28;20468;-73
2021/01/26 03:27:50;;;;;;;11.80;8.50;;;0.20;99.90;;;;;;5010744;28;20874;-73
2021/01/26 03:30:20;;;;;;;11.00;8.83;;;0.20;99.90;;;;;;5010068;28;20438;-73
2021/01/26 03:32:51;;;;;;;11.60;8.90;;;0.10;99.90;;;;;;5009953;28;20517;-75
2021/01/26 03:35:17;;;;;;;13.87;8.10;;;0.10;99.90;;;;;;4992564;28;20434;-73
2021/01/26 03:37:49;;;;;;;14.33;8.83;;;0.10;99.90;;;;;;5009895;28;20457;-73
2021/01/26 03:40:15;;;;;;;12.33;9.07;;;0.10;99.90;;;;;;5009616;28;20495;-75
2021/01/26 03:42:40;;;;;;;12.27;8.90;;;0.10;99.90;;;;;;4992769;28;20438;-75
2021/01/26 03:45:07;;;;;;;15.30;9.70;;;0.10;99.90;;;;;;5009976;28;20197;-75
2021/01/26 03:48:01;;;;;;;16.23;10.23;;;0.10;99.90;;;;;;5009402;28;20294;-75
2021/01/26 03:50:48;;;;;;;12.50;8.57;;;0.10;99.90;;;;;;5010001;28;20852;-75
2021/01/26 03:53:16;;;;;;;12.97;9.30;;;0.10;99.90;;;;;;5010038;28;20953;-75
2021/01/26 03:56:08;;;;;;;13.87;9.97;;;0.10;99.90;;;;;;5009653;28;20701;-75
2021/01/26 03:58:43;;;;;;;15.47;9.90;;;0.10;99.90;;;;;;5008856;28;20854;-75
2021/01/26 04:01:30;;;;;;;12.23;8.47;;;0.10;99.90;;;;;;5012807;28;20428;-74
2021/01/26 04:04:24;;;;;;;14.33;9.80;;;0.10;99.90;;;;;;5013668;28;20434;-75
2021/01/26 04:06:58;;;;;;;9.40;7.50;;;0.10;99.90;;;;;;5002624;28;20481;-75
2021/01/26 04:09:31;;;;;;;10.43;8.47;;;0.10;99.90;;;;;;5013486;28;20445;-75
2021/01/26 04:12:31;;;;;;;12.17;8.37;;;0.10;99.90;;;;;;5013632;28;20460;-74
2021/01/26 04:15:02;;;;;;;13.70;8.60;;;0.10;99.90;;;;;;4957071;28;20477;-74
2021/01/26 04:17:34;;;;;;;12.93;8.90;;;0.10;99.90;;;;;;5013188;28;20473;-75
2021/01/26 04:20:06;;;;;;;9.67;7.73;;;0.20;99.90;;;;;;5013551;28;20488;-75
2021/01/26 04:22:33;;;;;;;12.70;8.60;;;0.20;99.90;;;;;;5013098;28;20437;-75
2021/01/26 04:24:58;;;;;;;13.50;9.10;;;0.20;99.90;;;;;;5013360;28;20889;-75
2021/01/26 04:27:25;;;;;;;11.70;7.80;;;0.20;99.90;;;;;;4995622;28;20577;-75
2021/01/26 04:29:52;;;;;;;14.10;8.53;;;0.30;99.90;;;;;;4995394;28;20702;-75
2021/01/26 04:32:21;;;;;;;12.53;8.30;;;0.30;99.90;;;;;;5012999;28;20464;-74
2021/01/26 04:34:47;;;;;;;10.83;7.20;;;0.30;99.90;;;;;;4995069;28;20466;-75
2021/01/26 04:37:13;;;;;;;10.33;7.63;;;0.40;99.90;;;;;;5012321;28;20535;-75
2021/01/26 04:39:38;;;;;;;10.60;7.80;;;0.40;99.90;;;;;;5012903;28;20796;-74
2021/01/26 04:42:19;;;;;;;12.77;6.80;;;0.40;99.90;;;;;;4995677;28;20430;-75
2021/01/26 04:45:11;;;;;;;8.97;6.47;;;0.40;99.90;;;;;;4992065;28;20556;-75
2021/01/26 04:47:51;;;;;;;9.97;7.83;;;0.50;99.90;;;;;;5006806;28;20488;-75
2021/01/26 04:50:34;;;;;;;9.13;5.20;;;0.50;99.90;;;;;;4994939;28;21039;-75
2021/01/26 04:53:38;;;;;;;7.97;6.50;;;0.50;99.90;;;;;;4994830;28;20822;-75
2021/01/26 04:56:33;;;;;;;9.30;6.47;;;0.60;99.90;;;;;;5012231;28;20805;-75
2021/01/26 04:59:28;;;;;;;8.80;6.87;;;0.60;99.90;;;;;;5012794;28;20469;-75
2021/01/26 05:02:06;;;;;;;8.30;6.13;;;0.60;99.90;;;;;;5012371;28;20945;-75
2021/01/26 05:04:52;;;;;;;8.03;5.53;;;0.60;99.90;;;;;;5002477;28;20629;-75
2021/01/26 05:07:24;;;;;;;7.30;5.63;;;0.70;99.90;;;;;;5012151;28;20871;-75
2021/01/26 05:09:56;;;;;;;6.43;5.43;;;0.70;99.90;;;;;;5012122;28;20521;-75
2021/01/26 05:12:22;;;;;;;9.47;5.77;;;0.70;99.90;;;;;;5011175;28;20504;-75
2021/01/26 05:14:54;;;;;;;7.17;5.33;;;0.70;99.90;;;;;;5012280;28;20463;-75
2021/01/26 05:17:46;;;;;;;10.20;5.90;;;0.70;99.90;;;;;;5012144;28;20548;-75
2021/01/26 05:20:26;;;;;;;6.80;5.30;;;0.70;99.90;;;;;;5012398;28;20438;-75
2021/01/26 05:23:13;;;;;;;7.40;6.00;;;0.70;99.90;;;;;;5012562;28;20418;-75
2021/01/26 05:25:39;;;;;;;7.83;6.00;;;0.70;99.90;;;;;;5011519;28;20807;-75
2021/01/26 05:28:04;;;;;;;6.20;5.20;;;0.70;99.90;;;;;;5011725;28;20456;-75
2021/01/26 05:30:34;;;;;;;8.40;5.90;;;0.70;99.90;;;;;;5011426;28;20167;-74
2021/01/26 05:33:11;;;;;;;9.00;6.30;;;0.80;99.90;;;;;;5007976;28;20230;-75
2021/01/26 05:35:40;;;;;;;9.87;5.50;;;0.70;99.90;;;;;;5011012;28;20433;-75
2021/01/26 05:38:07;;;;;;;8.30;4.73;;;0.80;99.90;;;;;;5011825;28;20450;-76
2021/01/26 05:40:36;;;;;;;6.50;5.17;;;0.80;99.90;;;;;;5012038;28;20473;-75
2021/01/26 05:43:06;;;;;;;7.17;5.70;;;0.80;99.90;;;;;;5012160;28;20449;-75
2021/01/26 05:45:37;;;;;;;9.43;5.40;;;0.80;99.90;;;;;;5011099;28;20441;-75
2021/01/26 05:48:11;;;;;;;7.17;5.57;;;0.80;99.90;;;;;;4994327;28;20492;-74
2021/01/26 05:50:38;;;;;;;9.10;6.40;;;0.80;99.90;;;;;;5011746;28;20446;-75
2021/01/26 05:53:30;;;;;;;6.57;5.67;;;0.80;99.90;;;;;;5011690;28;20492;-75
2021/01/26 05:56:12;;;;;;;14.50;8.10;;;0.80;99.90;;;;;;5010753;28;20437;-75
2021/01/26 05:58:41;;;;;;;7.83;5.30;;;0.80;99.90;;;;;;5011498;28;20453;-76
2021/01/26 06:01:12;;;;;;;7.03;5.27;;;0.80;99.90;;;;;;5011205;28;20525;-75
2021/01/26 06:03:38;;;;;;;5.93;4.83;;;0.80;99.90;;;;;;5011698;28;20476;-76
2021/01/26 06:06:21;;;;;;;8.77;4.87;;;0.90;99.90;;;;;;4993593;28;20444;-74
2021/01/26 06:08:55;;;;;;;6.30;4.60;;;0.90;99.90;;;;;;5011575;28;20430;-75
2021/01/26 06:11:29;;;;;;;8.27;5.40;;;0.90;99.90;;;;;;4998989;28;20469;-75
2021/01/26 06:14:12;;;;;;;6.30;4.47;;;0.90;99.90;;;;;;5011574;28;20832;-76
2021/01/26 06:16:38;;;;;;;5.20;4.57;;;0.90;99.90;;;;;;5011108;28;20450;-75
2021/01/26 06:19:04;;;;;;;5.73;4.30;;;0.90;99.90;;;;;;5011469;28;20445;-76
2021/01/26 06:21:44;;;;;;;10.23;4.47;;;0.90;99.90;;;;;;5010875;28;20265;-76
2021/01/26 06:24:21;;;;;;;6.10;4.83;;;0.90;99.90;;;;;;5010646;28;20433;-76
2021/01/26 06:27:25;;;;;;;6.73;4.40;;;1.00;99.90;;;;;;4993355;28;20454;-75
2021/01/26 06:30:12;;;;;;;8.57;4.50;;;1.00;99.90;;;;;;5006088;28;20502;-77
2021/01/26 06:33:10;;;;;;;7.10;4.10;;;1.00;99.90;;;;;;5009893;28;20545;-75
2021/01/26 06:35:53;;;;;;;5.00;4.27;;;1.00;99.90;;;;;;5007927;28;20524;-76
2021/01/26 06:39:03;;;;;;;5.13;3.87;;;1.00;99.90;;;;;;5003538;28;20949;-76
2021/01/26 06:41:43;;;;;;;8.90;4.50;;;1.00;99.90;;;;;;4949148;29;20448;-76
2021/01/26 06:44:39;;;;;;;7.17;4.43;;;1.00;99.90;;;;;;5004293;28;20533;-76
2021/01/26 06:47:14;;;;;;;5.23;3.90;;;1.00;99.90;;;;;;4994359;28;20457;-76
2021/01/26 06:50:01;;;;;;;12.10;4.90;;;1.00;99.90;;;;;;4993109;28;20940;-76
2021/01/26 06:53:00;;;;;;;13.40;5.80;;;1.00;99.90;;;;;;5010634;28;20429;-76
2021/01/26 06:55:33;;;;;;;8.43;4.67;;;1.00;99.90;;;;;;5010123;28;20492;-74
2021/01/26 06:58:36;;;;;;;5.10;3.70;;;1.10;99.90;;;;;;5010849;28;20450;-72
2021/01/26 07:01:09;;;;;;;4.53;4.03;;;1.10;99.90;;;;;;5010978;28;20441;-72
2021/01/26 07:04:12;;;;;;;5.93;5.33;;;1.10;99.90;;;;;;5010745;28;20447;-71
2021/01/26 07:06:59;;;;;;;7.00;4.63;;;1.10;99.90;;;;;;5009928;28;20462;-72
2021/01/26 07:09:58;;;;;;;6.60;5.37;;;1.20;99.90;;;;;;5010360;28;20762;-69
2021/01/26 07:12:44;;;;;;;4.47;3.63;;;1.20;99.90;;;;;;5010904;28;20942;-69
2021/01/26 07:15:42;;;;;;;4.83;4.33;;;1.20;99.90;;;;;;5009056;28;20541;-71
2021/01/26 07:18:27;;;;;;;5.37;4.07;;;1.20;99.90;;;;;;4963663;28;21100;-70
2021/01/26 07:21:05;;;;;;;6.60;3.53;;;1.20;99.90;;;;;;4989565;28;20444;-70
2021/01/26 07:24:01;;;;;;;5.50;3.73;;;1.20;99.90;;;;;;5010290;28;22700;-68
2021/01/26 07:26:56;;;;;;;5.83;4.10;;;1.30;99.90;;;;;;4995090;28;20843;-70
2021/01/26 07:29:37;;;;;;;5.37;3.60;;;1.30;99.90;;;;;;5010553;28;20525;-71
2021/01/26 07:32:16;;;;;;;5.53;3.83;;;1.30;99.90;;;;;;5010420;28;20521;-70
2021/01/26 07:34:51;;;;;;;6.03;3.03;;;1.30;99.90;;;;;;5010293;28;20454;-71
2021/01/26 07:37:24;;;;;;;10.63;3.87;;;1.30;99.90;;;;;;5013724;28;20960;-73
2021/01/26 07:40:02;;;;;;;5.03;4.00;;;1.30;99.90;;;;;;5012679;28;20477;-71
2021/01/26 07:42:32;;;;;;;4.13;3.37;;;1.40;99.90;;;;;;5014042;28;20516;-72
2021/01/26 07:45:15;;;;;;;5.83;3.60;;;1.40;99.90;;;;;;5014191;28;20491;-68
2021/01/26 07:47:45;;;;;;;6.10;4.20;;;1.40;99.90;;;;;;5010809;28;20457;-71
2021/01/26 07:50:30;;;;;;;7.10;4.63;;;1.50;99.90;;;;;;5005492;28;20454;-70
2021/01/26 07:53:00;;;;;;;5.10;3.97;;;1.50;99.90;;;;;;5006941;28;20429;-70
2021/01/26 07:55:37;;;;;;;5.37;3.40;;;1.50;99.90;;;;;;5013278;28;20792;-71
2021/01/26 07:58:11;;;;;;;4.53;3.00;;;1.50;99.90;;;;;;5013154;28;20456;-71
2021/01/26 08:00:41;;;;;;;6.23;4.10;;;1.50;99.90;;;;;;5012623;28;20452;-71
2021/01/26 08:03:07;;;;;;;4.93;3.17;;;1.60;99.90;;;;;;5013294;28;20508;-71
2021/01/26 08:05:40;;;;;;;4.77;3.30;;;1.60;99.90;;;;;;5012789;28;20463;-71
2021/01/26 08:08:08;;;;;;;3.83;3.20;;;1.60;99.90;;;;;;5013143;28;20559;-72
2021/01/26 08:10:34;;;;;;;3.90;3.43;;;1.70;99.90;;;;;;5013002;28;20921;-72
2021/01/26 08:13:02;;;;;;;4.27;3.23;;;1.70;99.90;;;;;;5012798;28;20767;-72
2021/01/26 08:15:33;;;;;;;4.63;2.80;;;1.70;99.90;;;;;;5012580;28;20520;-72
2021/01/26 08:18:26;;;;;;;6.13;3.30;;;1.80;99.90;;;;;;5013424;28;20712;-71
2021/01/26 08:20:52;;;;;;;4.30;2.70;;;1.80;99.90;;;;;;5013068;28;20433;-71
2021/01/26 08:23:23;;;;;;;7.50;3.93;;;1.80;99.90;;;;;;5012931;28;20945;-71
2021/01/26 08:25:53;;;;;;;5.10;3.87;;;1.80;99.90;;;;;;5012761;28;20499;-71
2021/01/26 08:28:40;;;;;;;5.33;2.67;;;1.80;99.90;;;;;;5013028;28;20488;-72
2021/01/26 08:31:38;;;;;;;7.00;3.20;;;1.90;99.90;;;;;;5012536;28;20473;-71
2021/01/26 08:34:23;;;;;;;5.73;4.00;;;1.90;99.90;;;;;;5006810;28;20504;-71
2021/01/26 08:37:21;;;;;;;5.23;3.97;;;1.90;99.90;;;;;;5011890;28;20829;-71
2021/01/26 08:39:49;;;;;;;6.13;3.80;;;1.80;99.90;;;;;;5012807;28;20425;-71
2021/01/26 08:42:51;;;;;;;8.40;4.00;;;1.80;99.90;;;;;;5012536;28;20430;-71
2021/01/26 08:45:26;;;;;;;5.60;5.00;;;1.70;99.90;;;;;;4936481;28;20444;-71
2021/01/26 08:47:54;;;;;;;7.50;4.97;;;1.70;99.90;;;;;;4992102;28;20460;-70
2021/01/26 08:50:31;;;;;;;8.47;4.70;;;1.60;99.90;;;;;;5013159;28;21030;-71
2021/01/26 08:53:23;;;;;;;5.80;5.20;;;1.70;99.90;;;;;;5012269;28;20809;-70
2021/01/26 08:55:52;;;;;;;6.20;5.00;;;1.70;99.90;;;;;;5012364;28;20809;-71
2021/01/26 08:58:42;;;;;;;9.53;5.47;;;1.60;99.90;;;;;;5012260;28;20456;-71
2021/01/26 09:01:40;;;;;;;11.03;5.80;;;1.60;99.90;;;;;;5012677;28;20440;-71
2021/01/26 09:04:12;;;;;;;7.80;6.18;;;1.60;99.90;;;;;;5003212;28;20815;-71
2021/01/26 09:06:43;;;;;;;7.27;5.57;;;1.60;99.90;;;;;;5011704;28;20226;-70
2021/01/26 09:09:18;;;;;;;7.07;4.93;;;1.60;99.90;;;;;;5012247;28;20441;-71
2021/01/26 09:11:49;;;;;;;6.10;5.50;;;1.60;99.90;;;;;;5012356;28;20429;-71
2021/01/26 09:14:42;;;;;;;5.47;4.30;;;1.60;99.90;;;;;;5012411;28;20887;-70
2021/01/26 09:17:28;;;;;;;6.20;5.20;;;1.60;99.90;;;;;;5008448;28;20479;-71
2021/01/26 09:20:06;;;;;;;4.40;4.00;;;1.70;99.90;;;;;;5007922;28;20841;-71
2021/01/26 09:22:32;;;;;;;5.20;3.73;;;1.80;99.90;;;;;;5010260;28;20429;-71
2021/01/26 09:25:19;;;;;;;4.30;3.90;;;1.80;99.90;;;;;;5007483;28;20438;-71
2021/01/26 09:28:00;;;;;;;7.60;6.07;;;1.80;99.90;;;;;;5011328;28;20441;-71
2021/01/26 09:30:28;;;;;;;6.60;4.97;;;1.80;99.90;;;;;;5011274;28;20428;-71
2021/01/26 09:33:04;;;;;;;4.37;3.43;;;1.80;99.90;;;;;;5010956;28;20512;-71
2021/01/26 09:35:34;;;;;;;5.03;4.23;;;1.80;99.90;;;;;;5010447;28;20449;-70
2021/01/26 09:38:01;;;;;;;5.10;4.23;;;1.80;99.90;;;;;;5011474;28;20823;-71
2021/01/26 09:40:27;;;;;;;5.60;4.10;;;1.90;99.90;;;;;;5011379;28;20484;-70
2021/01/26 09:43:18;;;;;;;4.37;3.97;;;2.00;99.90;;;;;;5010955;28;20426;-70
2021/01/26 09:45:44;;;;;;;5.63;4.23;;;2.20;99.90;;;;;;4993537;28;20225;-70
2021/01/26 09:48:17;;;;;;;3.97;3.37;;;2.30;99.90;;;;;;5010916;28;20446;-71
2021/01/26 09:50:42;;;;;;;4.00;3.00;;;2.50;99.90;;;;;;5011752;28;20437;-72
2021/01/26 09:53:09;;;;;;;3.60;3.27;;;2.50;99.90;;;;;;4990347;28;22506;-70
2021/01/26 09:55:35;;;;;;;6.93;4.77;;;2.50;99.90;;;;;;5007931;28;20271;-70
2021/01/26 09:58:01;;;;;;;5.03;3.10;;;2.50;99.90;;;;;;5010528;28;21064;-70
2021/01/26 10:00:28;;;;;;;4.00;3.30;;;2.70;99.90;;;;;;5011046;28;20548;-71
2021/01/26 10:02:57;;;;;;;3.60;3.30;;;2.80;99.90;;;;;;5011274;28;20265;-71
2021/01/26 10:05:25;;;;;;;8.77;3.27;;;2.90;99.90;;;;;;5010426;28;20442;-71
2021/01/26 10:08:25;;;;;;;9.17;3.20;;;2.90;99.90;;;;;;5010237;28;20531;-70
2021/01/26 10:10:51;;;;;;;4.30;3.83;;;2.80;99.90;;;;;;4967344;28;20710;-70
2021/01/26 10:13:30;;;;;;;2.60;2.40;;;2.60;99.90;;;;;;5010298;28;20477;-70
2021/01/26 10:15:57;;;;;;;4.70;4.17;;;2.60;99.90;;;;;;5006808;28;20254;-70
2021/01/26 10:18:30;;;;;;;7.43;3.63;;;2.60;99.90;;;;;;5010503;28;20450;-70
2021/01/26 10:21:03;;;;;;;5.13;3.23;;;2.70;99.90;;;;;;5010958;28;20441;-70
2021/01/26 10:23:43;;;;;;;4.30;2.87;;;2.90;99.90;;;;;;5010148;28;20450;-70
2021/01/26 10:26:14;;;;;;;4.87;3.00;;;3.10;99.90;;;;;;5010605;28;20456;-71
2021/01/26 10:29:16;;;;;;;2.57;2.37;;;3.90;99.90;;;;;;5010662;28;20544;-71
2021/01/26 10:31:42;;;;;;;4.07;2.70;;;5.10;99.90;;;;;;4983198;28;20452;-71
2021/01/26 10:34:34;;;;;;;2.63;2.30;;;7.40;99.90;;;;;;5010819;28;20473;-71
2021/01/26 10:37:13;;;;;;;3.40;3.10;;;9.80;99.90;;;;;;5006540;28;20222;-72
2021/01/26 10:39:41;;;;;;;2.83;2.40;;;11.30;99.90;;;;;;5008124;28;21002;-70
2021/01/26 10:42:22;;;;;;;3.53;2.93;;;12.40;94.20;;;;;;5010586;28;20445;-72
2021/01/26 10:44:54;;;;;;;5.10;3.27;;;10.60;95.20;;;;;;5010027;28;20504;-69
2021/01/26 10:47:31;;;;;;;5.63;3.40;;;9.60;97.10;;;;;;5008745;28;21299;-69
2021/01/26 10:50:07;;;;;;;7.77;4.40;;;8.50;98.80;;;;;;5010065;28;20457;-69
2021/01/26 10:52:41;;;;;;;5.87;3.10;;;7.10;99.90;;;;;;5010150;28;20464;-69
2021/01/26 10:55:09;;;;;;;3.73;3.43;;;6.00;99.90;;;;;;4991083;28;20930;-71
2021/01/26 10:57:34;;;;;;;5.73;3.77;;;5.10;99.90;;;;;;4997711;28;20472;-71
2021/01/26 11:00:00;;;;;;;3.40;3.10;;;4.60;99.90;;;;;;4991880;28;20429;-70
2021/01/26 11:02:25;;;;;;;4.17;3.40;;;4.30;99.90;;;;;;5010023;28;20658;-70
2021/01/26 11:04:51;;;;;;;2.93;2.73;;;4.10;99.90;;;;;;5009995;28;20186;-71
2021/01/26 11:07:17;;;;;;;5.10;3.00;;;3.90;99.90;;;;;;5009289;28;20265;-71
2021/01/26 11:09:44;;;;;;;5.37;2.67;;;3.70;99.90;;;;;;5009807;28;20185;-71
2021/01/26 11:12:10;;;;;;;4.73;2.60;;;3.60;99.90;;;;;;5009499;28;20697;-71
2021/01/26 11:14:35;;;;;;;3.30;3.00;;;3.50;99.90;;;;;;5010098;28;20470;-71
2021/01/26 11:17:01;;;;;;;9.50;2.60;;;3.40;99.90;;;;;;5009207;28;20289;-71
2021/01/26 11:19:29;;;;;;;7.53;2.90;;;3.40;99.90;;;;;;5009405;28;20262;-71
2021/01/26 11:21:54;;;;;;;3.27;2.93;;;3.20;99.90;;;;;;5009596;28;20193;-71
2021/01/26 11:24:20;;;;;;;4.53;2.90;;;3.20;99.90;;;;;;5009907;28;20441;-71
2021/01/26 11:26:46;;;;;;;3.20;2.90;;;3.20;99.90;;;;;;5009400;28;20627;-71
2021/01/26 11:29:11;;;;;;;5.00;2.33;;;3.20;99.90;;;;;;5009490;28;20182;-70
2021/01/26 11:31:37;;;;;;;3.70;2.50;;;3.10;99.90;;;;;;5009189;28;20244;-71
2021/01/26 11:34:03;;;;;;;5.70;3.23;;;3.10;99.90;;;;;;5009526;28;20260;-70
2021/01/26 11:36:29;;;;;;;3.13;2.23;;;3.10;99.90;;;;;;5008045;28;20171;-68
2021/01/26 11:38:54;;;;;;;5.87;3.10;;;3.00;99.90;;;;;;5008902;28;20434;-70
2021/01/26 11:41:20;;;;;;;3.30;2.10;;;3.00;99.90;;;;;;5008966;28;20175;-71
2021/01/26 11:43:45;;;;;;;3.40;2.73;;;3.00;99.90;;;;;;5009313;28;20232;-70
2021/01/26 11:46:11;;;;;;;6.40;2.93;;;3.10;99.90;;;;;;5009068;28;20650;-69
2021/01/26 11:48:36;;;;;;;4.97;3.37;;;3.20;99.90;;;;;;5009226;28;20348;-69
2021/01/26 11:51:03;;;;;;;3.13;2.50;;;3.10;99.90;;;;;;4988918;28;20179;-70
2021/01/26 11:53:29;;;;;;;2.83;2.23;;;3.10;99.90;;;;;;5009246;28;20206;-71
2021/01/26 11:55:58;;;;;;;3.17;2.03;;;3.20;99.90;;;;;;5009240;28;20937;-70
2021/01/26 11:58:24;;;;;;;2.20;1.87;;;3.30;99.90;;;;;;5009246;28;20273;-71
2021/01/26 12:00:50;;;;;;;3.80;2.60;;;3.60;99.90;;;;;;5008990;28;20972;-71
2021/01/26 12:03:16;;;;;;;7.73;2.60;;;3.80;99.90;;;;;;5009328;28;20469;-70
2021/01/26 12:05:42;;;;;;;3.20;2.63;;;4.20;99.90;;;;;;5009602;28;20221;-71
2021/01/26 12:08:09;;;;;;;2.70;2.30;;;4.70;99.90;;;;;;5009309;28;20465;-70
2021/01/26 12:10:35;;;;;;;2.63;2.40;;;5.60;99.90;;;;;;5008746;28;20434;-71
2021/01/26 12:13:01;;;;;;;5.00;3.73;;;7.00;99.90;;;;;;5009350;28;20450;-71
2021/01/26 12:15:35;;;;;;;5.00;3.40;;;7.80;99.90;;;;;;4990867;28;20276;-72
2021/01/26 12:18:01;;;;;;;4.77;2.97;;;6.70;99.90;;;;;;5009248;28;20866;-71
2021/01/26 12:20:27;;;;;;;3.27;2.77;;;5.90;99.90;;;;;;5009786;28;20442;-71
2021/01/26 12:22:54;;;;;;;2.57;2.20;;;5.20;99.90;;;;;;5012854;28;20646;-71
2021/01/26 12:25:21;;;;;;;6.27;2.20;;;4.80;99.90;;;;;;5012528;28;20520;-71
2021/01/26 12:27:46;;;;;;;2.50;1.83;;;4.60;99.90;;;;;;5012723;28;20457;-70
2021/01/26 12:30:14;;;;;;;5.30;2.60;;;4.50;99.90;;;;;;5013152;28;20782;-71
2021/01/26 12:32:39;;;;;;;3.90;2.30;;;4.40;99.90;;;;;;5012803;28;20171;-71
2021/01/26 12:35:09;;;;;;;4.17;2.77;;;4.40;99.90;;;;;;5012212;28;20485;-71
2021/01/26 12:37:35;;;;;;;4.97;2.47;;;4.40;99.90;;;;;;5012711;28;20261;-71
2021/01/26 12:40:00;;;;;;;5.87;2.67;;;4.30;99.90;;;;;;5012221;28;20945;-71
2021/01/26 12:42:26;;;;;;;4.47;2.50;;;4.10;99.90;;;;;;5012530;28;20187;-71
2021/01/26 12:44:52;;;;;;;6.20;2.97;;;4.30;99.90;;;;;;5012856;28;20678;-71
2021/01/26 12:47:18;;;;;;;4.40;2.73;;;4.40;99.90;;;;;;5011902;28;20202;-71
2021/01/26 12:49:44;;;;;;;4.97;3.00;;;4.30;99.90;;;;;;5012104;28;20278;-71
2021/01/26 12:52:10;;;;;;;8.17;2.40;;;4.20;99.90;;;;;;5012279;28;21067;-71
2021/01/26 12:54:35;;;;;;;5.00;3.03;;;4.00;99.90;;;;;;5012264;28;20206;-71
2021/01/26 12:57:01;;;;;;;3.37;2.50;;;3.90;99.90;;;;;;5011534;28;20197;-71
2021/01/26 12:59:27;;;;;;;3.97;2.37;;;3.90;99.90;;;;;;5013060;28;20184;-71
2021/01/26 13:01:52;;;;;;;4.37;2.37;;;3.80;99.90;;;;;;5000808;28;20183;-71
2021/01/26 13:04:18;;;;;;;3.27;2.67;;;3.80;99.90;;;;;;5011198;28;20847;-71
2021/01/26 13:06:43;;;;;;;3.20;2.40;;;3.80;99.90;;;;;;5011494;28;20289;-70
2021/01/26 13:09:09;;;;;;;3.67;2.30;;;4.00;99.90;;;;;;5011097;28;20266;-70
2021/01/26 13:11:35;;;;;;;5.50;2.43;;;4.10;99.90;;;;;;5012296;28;20170;-71
2021/01/26 13:14:00;;;;;;;3.50;3.20;;;4.30;99.90;;;;;;5011972;28;20205;-70
2021/01/26 13:16:26;;;;;;;3.47;3.00;;;4.30;99.90;;;;;;5011265;28;20183;-71
2021/01/26 13:18:52;;;;;;;2.63;2.43;;;4.50;99.90;;;;;;4994392;28;20175;-71
2021/01/26 13:21:18;;;;;;;5.47;2.20;;;4.70;99.90;;;;;;5003410;28;20222;-70
2021/01/26 13:23:44;;;;;;;6.17;2.90;;;4.50;99.90;;;;;;5011856;28;20183;-71
2021/01/26 13:26:10;;;;;;;3.17;2.20;;;4.40;99.90;;;;;;5011310;28;20442;-70
2021/01/26 13:28:35;;;;;;;3.87;2.27;;;4.40;99.90;;;;;;5011561;28;20683;-70